Time;durP1;ratioP1;P1;durP2;ratioP2;P2;SDS_P1;SDS_P2;PMS_P1;PMS_P2;Temp;Humidity;BMP_temperature;BMP_pressure;BME280_temperature;BME280_humidity;BME280_pressure;Samples;Min_cycle;Max_cycle;Signal;HPM_P1;HPM_P2
2022/04/28 00:00:03;;;;;;;;;;;23.50;40.60;;;;;;1575435;75;1131;-59
2022/04/28 00:02:06;;;;;;;;;;;23.50;40.50;;;;;;1569333;75;836;-57
2022/04/28 00:04:07;;;;;;;;;;;23.50;40.50;;;;;;1559811;74;1931;-57
2022/04/28 00:06:09;;;;;;;;;;;23.50;40.60;;;;;;1569514;74;685;-58
2022/04/28 00:08:11;;;;;;;;;;;23.40;40.50;;;;;;1571542;75;792;-58
2022/04/28 00:10:13;;;;;;;;;;;23.40;40.50;;;;;;1575474;74;1084;-60
2022/04/28 00:12:15;;;;;;;;;;;23.50;40.70;;;;;;1573537;75;806;-59
2022/04/28 00:14:17;;;;;;;;;;;23.40;40.50;;;;;;1563683;75;795;-60
2022/04/28 00:16:19;;;;;;;;;;;23.40;40.60;;;;;;1574382;75;685;-56
2022/04/28 00:18:21;;;;;;;;;;;23.40;40.60;;;;;;1565165;75;1528;-57
2022/04/28 00:20:23;;;;;;;;;;;23.40;40.70;;;;;;1566213;74;1169;-57
2022/04/28 00:22:25;;;;;;;;;;;23.40;40.70;;;;;;1569951;75;1903;-60
2022/04/28 00:24:26;;;;;;;;;;;23.30;40.70;;;;;;1576916;75;909;-60
2022/04/28 00:26:28;;;;;;;;;;;23.40;40.70;;;;;;1567008;75;710;-60
2022/04/28 00:28:30;;;;;;;;;;;23.40;40.70;;;;;;1564712;74;706;-60
2022/04/28 00:30:32;;;;;;;;;;;23.30;40.80;;;;;;1567287;75;1116;-59
2022/04/28 00:32:34;;;;;;;;;;;23.30;40.80;;;;;;1568414;74;1629;-58
2022/04/28 00:34:36;;;;;;;;;;;23.30;40.70;;;;;;1572685;74;712;-57
2022/04/28 00:36:38;;;;;;;;;;;23.30;40.80;;;;;;1572165;74;671;-60
2022/04/28 00:38:40;;;;;;;;;;;23.30;40.90;;;;;;1557861;74;712;-58
2022/04/28 00:40:42;;;;;;;;;;;23.30;40.90;;;;;;1566280;75;1108;-58
2022/04/28 00:42:43;;;;;;;;;;;23.30;41.00;;;;;;1568242;75;1944;-58
2022/04/28 00:44:46;;;;;;;;;;;23.30;40.90;;;;;;1573298;74;751;-60
2022/04/28 00:46:47;;;;;;;;;;;23.30;40.90;;;;;;1566501;74;1439;-58
2022/04/28 00:51:09;;;;;;;;;;;23.20;40.90;;;;;;1558345;75;1641;-57
2022/04/28 00:53:12;;;;;;;;;;;23.20;40.90;;;;;;1572408;74;785;-57
2022/04/28 00:55:14;;;;;;;;;;;23.30;41.00;;;;;;1572200;75;726;-59
2022/04/28 00:57:16;;;;;;;;;;;23.20;40.90;;;;;;1568842;75;722;-60
2022/04/28 00:59:18;;;;;;;;;;;23.30;41.10;;;;;;1571747;74;1394;-59
2022/04/28 01:01:20;;;;;;;;;;;23.20;41.00;;;;;;1575804;74;740;-56
2022/04/28 01:03:22;;;;;;;;;;;23.30;41.10;;;;;;1571693;74;1948;-60
2022/04/28 01:05:26;;;;;;;;;;;23.20;41.00;;;;;;1560566;74;652;-56
2022/04/28 01:07:28;;;;;;;;;;;23.30;41.10;;;;;;1572592;74;740;-58
2022/04/28 01:09:30;;;;;;;;;;;23.20;41.00;;;;;;1569533;75;1128;-60
2022/04/28 01:11:32;;;;;;;;;;;23.20;41.00;;;;;;1569107;74;708;-60
2022/04/28 01:13:34;;;;;;;;;;;23.20;41.00;;;;;;1573401;75;1673;-60
2022/04/28 01:15:43;;;;;;;;;;;23.20;41.00;;;;;;1563631;74;685;-59
2022/04/28 01:17:45;;;;;;;;;;;23.20;41.10;;;;;;1564583;75;998;-60
2022/04/28 01:19:47;;;;;;;;;;;23.20;41.10;;;;;;1556125;74;1162;-57
2022/04/28 01:21:50;;;;;;;;;;;23.20;41.00;;;;;;1562056;74;732;-60
2022/04/28 01:23:52;;;;;;;;;;;23.20;41.10;;;;;;1564500;75;1941;-59
2022/04/28 01:25:53;;;;;;;;;;;23.20;41.10;;;;;;1563598;75;780;-58
2022/04/28 01:27:55;;;;;;;;;;;23.20;41.00;;;;;;1573431;74;1553;-60
2022/04/28 01:29:58;;;;;;;;;;;23.30;41.10;;;;;;1566602;75;1144;-60
2022/04/28 01:32:00;;;;;;;;;;;23.20;41.10;;;;;;1570929;75;767;-58
2022/04/28 01:34:02;;;;;;;;;;;23.20;41.10;;;;;;1571065;75;839;-59
2022/04/28 01:36:05;;;;;;;;;;;23.20;41.10;;;;;;1576129;74;833;-58
2022/04/28 01:38:06;;;;;;;;;;;23.20;41.10;;;;;;1568823;75;843;-60
2022/04/28 01:40:12;;;;;;;;;;;23.20;41.20;;;;;;1561507;74;2128;-57
2022/04/28 01:42:13;;;;;;;;;;;23.20;41.20;;;;;;1528063;76;1564;-57
2022/04/28 01:44:15;;;;;;;;;;;23.20;41.20;;;;;;1503341;77;1938;-54
2022/04/28 01:46:18;;;;;;;;;;;23.10;41.30;;;;;;1534055;77;951;-58
2022/04/28 01:48:19;;;;;;;;;;;23.20;41.20;;;;;;1504547;78;794;-58
2022/04/28 01:50:21;;;;;;;;;;;23.20;41.30;;;;;;1535168;77;1206;-58
2022/04/28 01:54:58;;;;;;;;;;;23.20;41.30;;;;;;1528294;77;1644;-57
2022/04/28 01:56:59;;;;;;;;;;;23.20;41.30;;;;;;1527189;78;1652;-56
2022/04/28 01:59:01;;;;;;;;;;;23.20;41.40;;;;;;1529525;77;1138;-57
2022/04/28 02:01:03;;;;;;;;;;;23.20;41.40;;;;;;1529285;78;779;-58
2022/04/28 02:03:06;;;;;;;;;;;23.20;41.40;;;;;;1522112;78;1951;-57
2022/04/28 02:05:08;;;;;;;;;;;23.20;41.40;;;;;;1529075;76;951;-53
2022/04/28 02:07:13;;;;;;;;;;;23.20;41.50;;;;;;1525670;77;780;-54
2022/04/28 02:09:14;;;;;;;;;;;23.20;41.40;;;;;;1521202;78;1661;-56
2022/04/28 02:11:16;;;;;;;;;;;23.20;41.50;;;;;;1528162;76;1682;-56
2022/04/28 02:13:18;;;;;;;;;;;23.20;41.50;;;;;;1529227;78;764;-56
2022/04/28 02:15:20;;;;;;;;;;;23.20;41.50;;;;;;1526636;77;805;-56
2022/04/28 02:17:23;;;;;;;;;;;23.20;41.50;;;;;;1522767;77;678;-58
2022/04/28 02:19:24;;;;;;;;;;;23.20;41.50;;;;;;1531216;77;1164;-57
2022/04/28 02:21:27;;;;;;;;;;;23.20;41.50;;;;;;1529401;78;700;-55
2022/04/28 02:23:28;;;;;;;;;;;23.20;41.40;;;;;;1521704;77;1919;-54
2022/04/28 02:25:30;;;;;;;;;;;23.30;41.40;;;;;;1517439;76;1764;-57
2022/04/28 02:27:32;;;;;;;;;;;23.30;41.40;;;;;;1529292;78;828;-57
2022/04/28 02:29:34;;;;;;;;;;;23.30;41.30;;;;;;1524911;77;1149;-58
2022/04/28 02:31:36;;;;;;;;;;;23.50;41.40;;;;;;1529420;78;801;-57
2022/04/28 02:33:38;;;;;;;;;;;23.40;41.50;;;;;;1529163;77;927;-57
2022/04/28 02:35:40;;;;;;;;;;;23.30;41.80;;;;;;1527572;78;789;-58
2022/04/28 02:37:42;;;;;;;;;;;23.30;42.10;;;;;;1527652;77;1618;-54
2022/04/28 02:39:44;;;;;;;;;;;23.20;42.30;;;;;;1521922;78;1188;-56
2022/04/28 02:41:46;;;;;;;;;;;23.20;42.60;;;;;;1528398;78;971;-53
2022/04/28 02:43:51;;;;;;;;;;;23.20;42.80;;;;;;1527964;76;1941;-54
2022/04/28 02:45:53;;;;;;;;;;;23.20;43.00;;;;;;1522512;76;759;-54
2022/04/28 02:47:55;;;;;;;;;;;23.20;43.10;;;;;;1519804;77;742;-55
2022/04/28 02:49:58;;;;;;;;;;;23.20;43.20;;;;;;1519495;78;1108;-57
2022/04/28 02:52:00;;;;;;;;;;;23.20;43.40;;;;;;1524797;77;1514;-57
2022/04/28 02:54:02;;;;;;;;;;;23.20;43.40;;;;;;1521662;77;788;-58
2022/04/28 02:56:04;;;;;;;;;;;23.20;43.50;;;;;;1515573;76;717;-57
2022/04/28 02:58:06;;;;;;;;;;;23.20;43.40;;;;;;1516221;77;780;-57
2022/04/28 03:00:08;;;;;;;;;;;23.20;43.60;;;;;;1506167;78;1152;-57
2022/04/28 03:02:10;;;;;;;;;;;23.20;43.60;;;;;;1515566;77;907;-58
2022/04/28 03:04:12;;;;;;;;;;;23.30;43.80;;;;;;1521876;77;1935;-58
2022/04/28 03:10:54;;;;;;;;;;;23.30;43.90;;;;;;1517698;77;1635;-57
2022/04/28 03:12:56;;;;;;;;;;;23.30;43.90;;;;;;1529420;76;709;-54
2022/04/28 03:14:58;;;;;;;;;;;23.40;43.90;;;;;;1519710;78;736;-57
2022/04/28 03:17:00;;;;;;;;;;;23.40;43.80;;;;;;1528515;76;692;-57
2022/04/28 03:19:02;;;;;;;;;;;23.40;43.70;;;;;;1518386;76;1194;-57
2022/04/28 03:21:05;;;;;;;;;;;23.50;43.90;;;;;;1525254;78;1334;-57
2022/04/28 03:23:07;;;;;;;;;;;23.50;43.80;;;;;;1526566;78;698;-57
2022/04/28 03:25:09;;;;;;;;;;;23.50;43.80;;;;;;1518932;76;1914;-57
2022/04/28 03:27:11;;;;;;;;;;;23.50;43.60;;;;;;1525945;77;708;-53
2022/04/28 03:29:13;;;;;;;;;;;23.60;43.90;;;;;;1523315;78;1151;-57
2022/04/28 03:31:15;;;;;;;;;;;23.60;44.00;;;;;;1529608;78;748;-56
2022/04/28 03:33:17;;;;;;;;;;;23.60;43.80;;;;;;1529329;77;805;-57
2022/04/28 03:35:19;;;;;;;;;;;23.60;43.70;;;;;;1529457;76;1539;-57
2022/04/28 03:37:21;;;;;;;;;;;23.70;43.80;;;;;;1523056;78;795;-57
2022/04/28 03:39:23;;;;;;;;;;;23.60;43.40;;;;;;1529593;78;1134;-57
2022/04/28 03:41:25;;;;;;;;;;;23.60;43.40;;;;;;1526216;77;787;-56
2022/04/28 03:43:26;;;;;;;;;;;23.70;43.50;;;;;;1525464;77;701;-55
2022/04/28 03:45:28;;;;;;;;;;;23.70;43.40;;;;;;1528933;77;1952;-57
2022/04/28 03:47:33;;;;;;;;;;;23.60;43.30;;;;;;1529409;78;773;-57
2022/04/28 03:49:35;;;;;;;;;;;23.70;43.40;;;;;;1518117;78;1568;-57
2022/04/28 03:51:37;;;;;;;;;;;23.70;43.40;;;;;;1531375;77;747;-54
2022/04/28 03:53:39;;;;;;;;;;;23.70;43.40;;;;;;1523226;77;741;-57
2022/04/28 03:55:41;;;;;;;;;;;23.70;43.40;;;;;;1528232;77;746;-57
2022/04/28 03:57:43;;;;;;;;;;;23.70;43.30;;;;;;1528364;77;719;-56
2022/04/28 03:59:45;;;;;;;;;;;23.70;43.40;;;;;;1529523;78;1151;-58
2022/04/28 04:01:48;;;;;;;;;;;23.70;43.30;;;;;;1529056;77;785;-58
2022/04/28 04:03:51;;;;;;;;;;;23.70;43.50;;;;;;1528596;77;1916;-57
2022/04/28 04:05:53;;;;;;;;;;;23.70;43.70;;;;;;1529056;77;679;-57
2022/04/28 04:07:54;;;;;;;;;;;23.60;43.50;;;;;;1519608;77;733;-57
2022/04/28 04:09:56;;;;;;;;;;;23.70;43.60;;;;;;1528948;78;1106;-57
2022/04/28 04:11:58;;;;;;;;;;;23.60;43.50;;;;;;1528910;76;921;-58
2022/04/28 04:14:00;;;;;;;;;;;23.60;43.50;;;;;;1528710;78;717;-57
2022/04/28 04:16:02;;;;;;;;;;;23.70;43.70;;;;;;1529215;78;721;-58
2022/04/28 04:18:04;;;;;;;;;;;23.70;43.70;;;;;;1527602;76;2178;-57
2022/04/28 04:20:06;;;;;;;;;;;23.70;43.60;;;;;;1526167;77;1194;-56
2022/04/28 04:22:08;;;;;;;;;;;23.70;43.80;;;;;;1496771;78;671;-57
2022/04/28 04:24:10;;;;;;;;;;;23.70;43.70;;;;;;1523457;78;1947;-58
2022/04/28 04:26:12;;;;;;;;;;;23.70;43.70;;;;;;1523590;76;674;-57
2022/04/28 04:28:14;;;;;;;;;;;23.60;43.60;;;;;;1527593;78;706;-56
2022/04/28 04:32:36;;;;;;;;;;;23.70;43.80;;;;;;1527772;78;1680;-57
2022/04/28 04:34:38;;;;;;;;;;;23.70;43.80;;;;;;1527829;76;723;-58
2022/04/28 04:36:39;;;;;;;;;;;23.80;43.70;;;;;;1529211;78;673;-57
2022/04/28 04:38:41;;;;;;;;;;;23.70;43.70;;;;;;1515795;77;772;-56
2022/04/28 04:40:43;;;;;;;;;;;23.70;43.70;;;;;;1517239;78;1135;-58
2022/04/28 04:42:45;;;;;;;;;;;23.70;43.70;;;;;;1523097;77;801;-59
2022/04/28 04:44:47;;;;;;;;;;;23.70;43.40;;;;;;1520005;77;1950;-59
2022/04/28 04:46:49;;;;;;;;;;;23.80;43.20;;;;;;1528757;78;684;-59
2022/04/28 04:48:51;;;;;;;;;;;23.70;43.10;;;;;;1528924;76;807;-59
2022/04/28 04:50:53;;;;;;;;;;;23.70;43.00;;;;;;1529163;77;1179;-59
2022/04/28 04:52:54;;;;;;;;;;;23.80;42.90;;;;;;1523625;77;748;-59
2022/04/28 04:54:56;;;;;;;;;;;23.70;42.80;;;;;;1524393;77;699;-59
2022/04/28 04:56:58;;;;;;;;;;;23.70;42.80;;;;;;1524229;77;663;-58
2022/04/28 04:59:00;;;;;;;;;;;23.70;42.80;;;;;;1528898;76;1697;-59
2022/04/28 05:01:03;;;;;;;;;;;23.70;42.80;;;;;;1529246;78;746;-59
2022/04/28 05:03:05;;;;;;;;;;;23.70;42.70;;;;;;1529113;78;744;-59
2022/04/28 05:05:08;;;;;;;;;;;23.70;42.80;;;;;;1523874;76;1938;-58
2022/04/28 05:07:10;;;;;;;;;;;23.70;42.90;;;;;;1523105;76;741;-59
2022/04/28 05:09:11;;;;;;;;;;;23.70;42.90;;;;;;1528276;77;1167;-59
2022/04/28 05:11:13;;;;;;;;;;;23.80;42.80;;;;;;1529496;78;593;-59
2022/04/28 05:13:15;;;;;;;;;;;23.70;42.80;;;;;;1529222;78;1541;-57
2022/04/28 05:15:17;;;;;;;;;;;23.70;42.70;;;;;;1528407;78;727;-59
2022/04/28 05:17:19;;;;;;;;;;;23.70;42.60;;;;;;1529240;76;785;-59
2022/04/28 05:19:21;;;;;;;;;;;23.70;42.60;;;;;;1522758;78;1168;-60
2022/04/28 05:21:23;;;;;;;;;;;23.70;42.70;;;;;;1522339;78;729;-58
2022/04/28 05:23:25;;;;;;;;;;;23.70;43.10;;;;;;1529311;78;743;-58
2022/04/28 05:25:27;;;;;;;;;;;23.80;44.30;;;;;;1529175;76;1928;-58
2022/04/28 05:27:29;;;;;;;;;;;24.00;45.00;;;;;;1523502;78;1338;-58
2022/04/28 05:29:30;;;;;;;;;;;24.00;44.30;;;;;;1527257;78;1129;-58
2022/04/28 05:31:32;;;;;;;;;;;24.10;43.90;;;;;;1529362;77;704;-59
2022/04/28 05:33:34;;;;;;;;;;;24.30;42.10;;;;;;1529212;78;780;-59
2022/04/28 05:35:37;;;;;;;;;;;24.20;42.60;;;;;;1514709;77;771;-58
2022/04/28 05:37:39;;;;;;;;;;;24.30;42.20;;;;;;1519404;77;784;-57
2022/04/28 05:39:42;;;;;;;;;;;24.40;41.70;;;;;;1523514;77;1133;-58
2022/04/28 05:41:44;;;;;;;;;;;24.50;41.40;;;;;;1526213;76;1670;-58
2022/04/28 05:46:05;;;;;;;;;;;24.60;40.30;;;;;;1521294;77;1885;-58
2022/04/28 05:48:08;;;;;;;;;;;24.60;39.70;;;;;;1529271;77;713;-59
2022/04/28 05:50:10;;;;;;;;;;;24.60;39.20;;;;;;1529243;78;1168;-58
2022/04/28 05:52:12;;;;;;;;;;;24.70;39.20;;;;;;1529302;77;811;-58
2022/04/28 05:54:14;;;;;;;;;;;24.70;38.60;;;;;;1524970;78;822;-58
2022/04/28 05:56:16;;;;;;;;;;;24.80;38.10;;;;;;1529045;76;1729;-59
2022/04/28 05:58:17;;;;;;;;;;;24.80;37.80;;;;;;1530629;77;807;-59
2022/04/28 06:00:20;;;;;;;;;;;24.80;37.70;;;;;;1529233;78;1157;-58
2022/04/28 06:02:21;;;;;;;;;;;24.80;37.30;;;;;;1526224;78;812;-58
2022/04/28 06:04:23;;;;;;;;;;;24.80;37.20;;;;;;1519152;77;653;-57
2022/04/28 06:06:25;;;;;;;;;;;24.80;36.90;;;;;;1526067;77;1927;-58
2022/04/28 06:08:27;;;;;;;;;;;24.80;36.80;;;;;;1524021;78;765;-59
2022/04/28 06:10:29;;;;;;;;;;;24.80;36.80;;;;;;1528750;77;1716;-58
2022/04/28 06:12:31;;;;;;;;;;;24.80;36.50;;;;;;1529282;78;728;-59
2022/04/28 06:14:33;;;;;;;;;;;24.90;36.30;;;;;;1529261;77;670;-58
2022/04/28 06:16:35;;;;;;;;;;;24.80;36.10;;;;;;1527326;77;672;-58
2022/04/28 06:18:37;;;;;;;;;;;25.00;36.00;;;;;;1528198;76;687;-58
2022/04/28 06:20:39;;;;;;;;;;;25.00;35.60;;;;;;1529277;77;1151;-58
2022/04/28 06:22:41;;;;;;;;;;;25.00;35.10;;;;;;1514028;76;1516;-58
2022/04/28 06:24:43;;;;;;;;;;;25.00;35.20;;;;;;1521027;78;1927;-57
2022/04/28 06:26:44;;;;;;;;;;;25.10;34.90;;;;;;1519613;76;717;-58
2022/04/28 06:28:46;;;;;;;;;;;25.20;35.00;;;;;;1522883;76;742;-58
2022/04/28 06:30:48;;;;;;;;;;;25.10;34.60;;;;;;1526960;77;1118;-59
2022/04/28 06:32:50;;;;;;;;;;;25.00;34.30;;;;;;1527507;78;765;-58
2022/04/28 06:34:52;;;;;;;;;;;25.20;34.20;;;;;;1525463;77;668;-58
2022/04/28 06:36:54;;;;;;;;;;;25.10;34.00;;;;;;1520744;76;1582;-57
2022/04/28 06:38:56;;;;;;;;;;;25.10;34.30;;;;;;1529259;78;1159;-57
2022/04/28 06:40:57;;;;;;;;;;;25.10;32.80;;;;;;1520378;78;782;-57
2022/04/28 06:42:59;;;;;;;;;;;24.80;32.30;;;;;;1528477;77;810;-58
2022/04/28 06:45:01;;;;;;;;;;;24.60;32.30;;;;;;1527142;78;1938;-58
2022/04/28 06:47:05;;;;;;;;;;;24.60;33.00;;;;;;1528917;76;743;-57
2022/04/28 06:49:07;;;;;;;;;;;24.60;32.70;;;;;;1521707;78;1175;-57
2022/04/28 06:51:09;;;;;;;;;;;24.50;32.80;;;;;;1526116;78;1564;-57
2022/04/28 06:53:11;;;;;;;;;;;24.50;31.50;;;;;;1517121;78;762;-57
2022/04/28 06:55:13;;;;;;;;;;;24.30;30.90;;;;;;1527769;77;747;-58
2022/04/28 06:57:15;;;;;;;;;;;24.10;32.40;;;;;;1521508;78;759;-58
2022/04/28 06:59:17;;;;;;;;;;;24.10;32.90;;;;;;1522453;77;1143;-57
2022/04/28 07:01:19;;;;;;;;;;;24.10;32.50;;;;;;1525882;77;814;-57
2022/04/28 07:03:21;;;;;;;;;;;23.90;32.80;;;;;;1525099;77;780;-57
2022/04/28 07:05:23;;;;;;;;;;;23.90;32.00;;;;;;1524441;76;1932;-58
2022/04/28 07:07:25;;;;;;;;;;;23.90;31.50;;;;;;1517769;78;678;-57
2022/04/28 07:09:27;;;;;;;;;;;23.90;32.30;;;;;;1523460;77;1126;-58
2022/04/28 07:11:29;;;;;;;;;;;23.90;31.50;;;;;;1524974;77;802;-57
2022/04/28 07:13:31;;;;;;;;;;;23.80;32.30;;;;;;1525012;77;777;-57
2022/04/28 07:15:34;;;;;;;;;;;23.70;31.80;;;;;;1528747;78;948;-58
2022/04/28 07:17:36;;;;;;;;;;;23.80;32.20;;;;;;1521975;77;1367;-58
2022/04/28 07:19:38;;;;;;;;;;;23.60;30.50;;;;;;1511867;77;1533;-58
2022/04/28 07:21:40;;;;;;;;;;;23.40;31.80;;;;;;1525014;78;748;-58
2022/04/28 07:23:42;;;;;;;;;;;23.40;32.60;;;;;;1527991;76;881;-58
2022/04/28 07:25:44;;;;;;;;;;;23.30;32.90;;;;;;1516573;77;1924;-57
2022/04/28 07:27:46;;;;;;;;;;;23.40;33.10;;;;;;1517926;78;743;-58
2022/04/28 07:29:48;;;;;;;;;;;23.60;33.40;;;;;;1528984;78;1183;-58
2022/04/28 07:31:49;;;;;;;;;;;23.70;33.40;;;;;;1520303;78;740;-58
2022/04/28 07:33:51;;;;;;;;;;;23.80;33.30;;;;;;1520590;77;1365;-57
2022/04/28 07:35:53;;;;;;;;;;;23.90;33.20;;;;;;1522947;78;684;-58
2022/04/28 07:37:55;;;;;;;;;;;24.00;33.20;;;;;;1521123;77;710;-57
2022/04/28 07:39:57;;;;;;;;;;;24.10;33.20;;;;;;1519848;78;1102;-56
2022/04/28 07:41:59;;;;;;;;;;;24.20;33.10;;;;;;1490674;73;228336;-65
2022/04/28 07:44:01;;;;;;;;;;;24.30;33.00;;;;;;1486184;78;723;-66
2022/04/28 07:46:03;;;;;;;;;;;24.30;32.80;;;;;;1478508;79;1945;-65
2022/04/28 07:48:05;;;;;;;;;;;24.30;32.70;;;;;;1474669;79;1540;-65
2022/04/28 07:50:07;;;;;;;;;;;24.50;32.80;;;;;;1481533;78;1461;-65
2022/04/28 07:52:09;;;;;;;;;;;24.40;32.60;;;;;;1477946;80;720;-64
2022/04/28 07:54:10;;;;;;;;;;;24.50;32.20;;;;;;1454739;80;708;-65
2022/04/28 07:56:17;;;;;;;;;;;24.50;32.40;;;;;;1460088;80;726;-65
2022/04/28 07:58:19;;;;;;;;;;;24.50;32.40;;;;;;1456976;79;1618;-65
2022/04/28 08:00:21;;;;;;;;;;;24.50;32.30;;;;;;1463685;79;1149;-65
2022/04/28 08:02:22;;;;;;;;;;;24.50;32.10;;;;;;1447031;80;1515;-65
2022/04/28 08:04:24;;;;;;;;;;;24.50;31.80;;;;;;1466702;79;730;-65
2022/04/28 08:06:26;;;;;;;;;;;24.50;32.30;;;;;;1454947;80;1947;-64
2022/04/28 08:08:28;;;;;;;;;;;24.60;32.10;;;;;;1462862;79;724;-64
2022/04/28 08:10:30;;;;;;;;;;;24.60;31.80;;;;;;1467050;79;1131;-65
2022/04/28 08:12:34;;;;;;;;;;;24.60;31.90;;;;;;1471251;80;732;-66
2022/04/28 08:14:35;;;;;;;;;;;24.70;32.00;;;;;;1474638;78;760;-65
2022/04/28 08:16:37;;;;;;;;;;;24.60;31.70;;;;;;1455671;80;1514;-65
2022/04/28 08:18:39;;;;;;;;;;;24.70;32.00;;;;;;1472248;78;760;-64
2022/04/28 08:20:41;;;;;;;;;;;24.70;31.80;;;;;;1474944;79;1216;-64
2022/04/28 08:22:43;;;;;;;;;;;24.70;31.90;;;;;;1474033;79;757;-65
2022/04/28 08:24:45;;;;;;;;;;;24.70;31.80;;;;;;1477630;80;697;-65
2022/04/28 08:26:47;;;;;;;;;;;24.80;31.80;;;;;;1469445;80;1926;-65
2022/04/28 08:28:49;;;;;;;;;;;24.80;31.70;;;;;;1474898;79;833;-66
2022/04/28 08:30:51;;;;;;;;;;;24.70;31.50;;;;;;1462432;80;1522;-65
2022/04/28 08:32:53;;;;;;;;;;;24.70;31.60;;;;;;1486460;78;739;-65
2022/04/28 08:34:55;;;;;;;;;;;24.70;31.50;;;;;;1498196;77;633;-64
2022/04/28 08:36:57;;;;;;;;;;;24.70;31.60;;;;;;1503129;78;716;-66
2022/04/28 08:38:59;;;;;;;;;;;24.70;31.60;;;;;;1497160;77;753;-65
2022/04/28 08:41:01;;;;;;;;;;;24.70;31.60;;;;;;1499782;77;1138;-65
2022/04/28 08:43:04;;;;;;;;;;;24.70;31.60;;;;;;1499696;78;642;-66
2022/04/28 08:45:06;;;;;;;;;;;24.70;31.60;;;;;;1515383;77;1609;-64
2022/04/28 08:47:08;;;;;;;;;;;24.70;31.70;;;;;;1505429;78;1947;-65
2022/04/28 08:49:12;;;;;;;;;;;24.80;31.70;;;;;;1506215;78;702;-65
2022/04/28 08:51:14;;;;;;;;;;;24.80;31.60;;;;;;1505780;77;1174;-65
2022/04/28 08:53:15;;;;;;;;;;;24.80;31.40;;;;;;1505040;77;704;-65
2022/04/28 08:55:17;;;;;;;;;;;24.80;31.30;;;;;;1502207;77;709;-67
2022/04/28 08:57:19;;;;;;;;;;;24.70;31.10;;;;;;1504778;77;700;-65
2022/04/28 08:59:21;;;;;;;;;;;24.50;30.70;;;;;;1496133;77;726;-65
2022/04/28 09:01:27;;;;;;;;;;;24.60;31.30;;;;;;1499613;78;1119;-64
2022/04/28 09:03:29;;;;;;;;;;;24.60;31.30;;;;;;1505020;78;684;-65
2022/04/28 09:05:31;;;;;;;;;;;24.50;31.30;;;;;;1510166;77;647;-65
2022/04/28 09:07:38;;;;;;;;;;;24.50;31.30;;;;;;1511377;77;669;-65
2022/04/28 09:09:40;;;;;;;;;;;24.50;30.90;;;;;;1504033;77;1473;-63
2022/04/28 09:11:42;;;;;;;;;;;24.50;31.10;;;;;;1496250;77;1510;-65
2022/04/28 09:16:04;;;;;;;;;;;24.50;30.70;;;;;;1505551;77;1911;-64
2022/04/28 09:18:06;;;;;;;;;;;24.50;30.80;;;;;;1502181;77;661;-64
2022/04/28 09:20:10;;;;;;;;;;;24.50;30.70;;;;;;1510231;77;1147;-64
2022/04/28 09:22:13;;;;;;;;;;;24.50;31.00;;;;;;1508602;78;1649;-64
2022/04/28 09:24:15;;;;;;;;;;;24.50;30.90;;;;;;1501599;78;654;-64
2022/04/28 09:26:17;;;;;;;;;;;24.50;30.70;;;;;;1515506;77;1970;-64
2022/04/28 09:28:19;;;;;;;;;;;24.50;30.90;;;;;;1511415;77;600;-65
2022/04/28 09:30:26;;;;;;;;;;;24.50;30.80;;;;;;1508758;77;1163;-66
2022/04/28 09:32:24;;;;;;;;;;;24.50;30.80;;;;;;1496871;78;1562;-65
2022/04/28 09:34:27;;;;;;;;;;;24.50;30.80;;;;;;1499418;78;714;-64
2022/04/28 09:36:29;;;;;;;;;;;24.50;30.80;;;;;;1511220;78;643;-63
2022/04/28 09:38:31;;;;;;;;;;;24.40;30.70;;;;;;1512465;77;618;-64
2022/04/28 09:42:54;;;;;;;;;;;24.40;30.50;;;;;;1493085;78;1114;-64
2022/04/28 09:44:57;;;;;;;;;;;24.40;30.60;;;;;;1500463;77;649;-62
2022/04/28 09:47:00;;;;;;;;;;;24.40;30.50;;;;;;1490626;78;1926;-65
2022/04/28 09:49:02;;;;;;;;;;;24.30;30.60;;;;;;1507512;78;635;-64
2022/04/28 09:51:05;;;;;;;;;;;24.30;30.60;;;;;;1503849;77;1150;-64
2022/04/28 09:53:08;;;;;;;;;;;24.30;30.40;;;;;;1503231;78;674;-65
2022/04/28 09:55:10;;;;;;;;;;;24.30;30.60;;;;;;1522746;77;1473;-64
2022/04/28 09:57:12;;;;;;;;;;;24.30;30.00;;;;;;1503985;78;646;-64
2022/04/28 09:59:14;;;;;;;;;;;24.30;30.60;;;;;;1489929;78;585;-64
2022/04/28 10:01:15;;;;;;;;;;;24.30;30.50;;;;;;1498909;77;1111;-64
2022/04/28 10:03:17;;;;;;;;;;;24.30;30.70;;;;;;1501521;78;696;-64
2022/04/28 10:05:20;;;;;;;;;;;24.20;30.40;;;;;;1474117;79;662;-64
2022/04/28 10:07:23;;;;;;;;;;;24.20;30.50;;;;;;1495762;78;1903;-64
2022/04/28 10:09:25;;;;;;;;;;;24.20;30.40;;;;;;1504542;77;1505;-65
2022/04/28 10:11:26;;;;;;;;;;;24.10;30.50;;;;;;1496515;77;1113;-65
2022/04/28 10:13:29;;;;;;;;;;;24.10;30.70;;;;;;1494352;78;665;-64
2022/04/28 10:15:32;;;;;;;;;;;24.10;30.70;;;;;;1498826;78;665;-64
2022/04/28 10:17:44;;;;;;;;;;;24.10;30.90;;;;;;1494460;78;746;-64
2022/04/28 10:19:48;;;;;;;;;;;24.00;30.70;;;;;;1500693;78;631;-64
2022/04/28 10:21:51;;;;;;;;;;;24.00;30.80;;;;;;1502988;78;1641;-65
2022/04/28 10:33:22;;;;;;;;;;;24.00;30.80;;;;;;1501661;77;679;-65
2022/04/28 10:35:38;;;;;;;;;;;24.00;30.50;;;;;;1494404;78;680;-67
2022/04/28 10:37:45;;;;;;;;;;;24.10;30.60;;;;;;1509845;77;1551;-65
2022/04/28 10:39:46;;;;;;;;;;;23.90;27.90;;;;;;1502427;78;1614;-64
2022/04/28 10:41:48;;;;;;;;;;;23.70;29.20;;;;;;1486595;78;1104;-64
2022/04/28 10:43:51;;;;;;;;;;;23.60;29.10;;;;;;1488298;78;737;-63
2022/04/28 10:45:54;;;;;;;;;;;23.50;29.30;;;;;;1500722;78;644;-64
2022/04/28 10:48:09;;;;;;;;;;;23.40;30.00;;;;;;1507461;78;1913;-65
2022/04/28 10:50:23;;;;;;;;;;;23.30;29.10;;;;;;1462365;77;1537;-64
2022/04/28 10:52:25;;;;;;;;;;;23.30;29.70;;;;;;1505651;77;716;-67
2022/04/28 10:54:29;;;;;;;;;;;23.30;29.00;;;;;;1501658;77;745;-66
2022/04/28 10:56:32;;;;;;;;;;;23.20;29.20;;;;;;1475537;78;1029;-65
2022/04/28 10:58:34;;;;;;;;;;;23.10;28.70;;;;;;1494922;77;1652;-65
2022/04/28 11:00:36;;;;;;;;;;;23.10;29.10;;;;;;1511098;77;1189;-65
2022/04/28 11:02:40;;;;;;;;;;;23.10;29.20;;;;;;1490843;78;1170;-67
2022/04/28 11:04:45;;;;;;;;;;;23.00;29.40;;;;;;1498423;77;1521;-65
2022/04/28 11:06:48;;;;;;;;;;;23.10;28.90;;;;;;1509180;77;1907;-65
2022/04/28 11:08:51;;;;;;;;;;;23.10;29.70;;;;;;1503999;77;1107;-65
2022/04/28 11:11:02;;;;;;;;;;;22.90;28.90;;;;;;1502875;77;1096;-65
2022/04/28 11:13:10;;;;;;;;;;;22.80;28.00;;;;;;1510590;78;683;-65
2022/04/28 11:15:13;;;;;;;;;;;22.90;28.90;;;;;;1502796;78;692;-65
2022/04/28 11:17:16;;;;;;;;;;;22.80;28.90;;;;;;1509885;78;706;-65
2022/04/28 11:19:18;;;;;;;;;;;22.90;29.30;;;;;;1497074;78;1595;-65
2022/04/28 11:21:20;;;;;;;;;;;22.90;29.10;;;;;;1511235;77;1146;-65
2022/04/28 11:23:22;;;;;;;;;;;22.90;28.10;;;;;;1507254;77;693;-65
2022/04/28 11:25:24;;;;;;;;;;;22.80;28.30;;;;;;1506724;77;687;-66
2022/04/28 11:27:28;;;;;;;;;;;22.80;29.20;;;;;;1503941;78;1956;-65
2022/04/28 11:29:31;;;;;;;;;;;22.70;27.40;;;;;;1508033;78;666;-65
2022/04/28 11:31:33;;;;;;;;;;;22.60;29.20;;;;;;1476628;78;1237;-64
2022/04/28 11:33:35;;;;;;;;;;;22.70;28.90;;;;;;1510475;77;1423;-65
2022/04/28 11:35:40;;;;;;;;;;;22.70;29.40;;;;;;1510625;77;657;-66
2022/04/28 11:37:41;;;;;;;;;;;22.60;28.70;;;;;;1513075;77;1527;-65
2022/04/28 11:39:44;;;;;;;;;;;22.70;29.20;;;;;;1499910;78;651;-66
2022/04/28 11:41:52;;;;;;;;;;;22.70;27.90;;;;;;1509384;77;1126;-64
2022/04/28 11:43:50;;;;;;;;;;;22.50;27.90;;;;;;1507638;77;1575;-65
2022/04/28 11:45:52;;;;;;;;;;;22.50;28.70;;;;;;1501550;78;725;-65
2022/04/28 11:48:01;;;;;;;;;;;22.50;28.90;;;;;;1501250;78;1929;-65
2022/04/28 11:50:02;;;;;;;;;;;22.40;29.00;;;;;;1509110;77;1266;-65
2022/04/28 11:52:05;;;;;;;;;;;22.60;29.10;;;;;;1507793;77;679;-65
2022/04/28 11:54:08;;;;;;;;;;;22.60;29.20;;;;;;1502841;77;1619;-65
2022/04/28 11:56:14;;;;;;;;;;;22.60;29.20;;;;;;1504265;77;1283;-66
2022/04/28 11:58:16;;;;;;;;;;;22.60;29.10;;;;;;1507110;77;617;-65
2022/04/28 12:00:18;;;;;;;;;;;22.60;29.00;;;;;;1505793;77;1501;-65
2022/04/28 12:02:28;;;;;;;;;;;22.70;28.90;;;;;;1509804;77;704;-65
2022/04/28 12:04:30;;;;;;;;;;;22.60;29.40;;;;;;1506740;77;706;-67
2022/04/28 12:06:32;;;;;;;;;;;22.60;29.20;;;;;;1515084;77;1942;-66
2022/04/28 12:08:34;;;;;;;;;;;22.70;29.30;;;;;;1502542;77;634;-66
2022/04/28 12:15:17;;;;;;;;;;;22.60;29.50;;;;;;1514309;77;1556;-66
2022/04/28 12:19:52;;;;;;;;;;;22.80;29.40;;;;;;1509209;77;756;-66
2022/04/28 12:21:55;;;;;;;;;;;22.80;29.70;;;;;;1494736;77;1139;-65
2022/04/28 12:23:58;;;;;;;;;;;22.90;29.80;;;;;;1509766;78;1090;-65
2022/04/28 12:26:00;;;;;;;;;;;23.00;29.70;;;;;;1510361;78;666;-66
2022/04/28 12:28:03;;;;;;;;;;;22.90;29.30;;;;;;1491468;78;1924;-64
2022/04/28 12:30:07;;;;;;;;;;;22.90;29.40;;;;;;1506899;77;1716;-63
2022/04/28 12:32:09;;;;;;;;;;;22.90;29.50;;;;;;1503244;77;785;-65
2022/04/28 12:34:12;;;;;;;;;;;23.00;29.50;;;;;;1510068;78;719;-66
2022/04/28 12:36:14;;;;;;;;;;;23.00;29.50;;;;;;1519391;77;738;-66
2022/04/28 12:38:18;;;;;;;;;;;23.00;29.40;;;;;;1511026;78;825;-74
2022/04/28 12:40:20;;;;;;;;;;;23.10;29.70;;;;;;1510785;77;1847;-65
2022/04/28 12:42:22;;;;;;;;;;;23.00;29.40;;;;;;1510011;78;1507;-65